Time;durP1;ratioP1;P1;durP2;ratioP2;P2;SDS_P1;SDS_P2;PMS_P1;PMS_P2;Temp;Humidity;BMP_temperature;BMP_pressure;BME280_temperature;BME280_humidity;BME280_pressure;Samples;Min_cycle;Max_cycle;Signal;HPM_P1;HPM_P2
2020/12/31 00:00:18;;;;;;;;;;;9.30;82.70;;;;;;2595636;22;20407;-75
2020/12/31 00:01:20;;;;;;;;;;;9.40;81.80;;;;;;2596222;22;19926;-75
2020/12/31 00:02:21;;;;;;;;;;;9.50;80.90;;;;;;2595705;22;19919;-74
2020/12/31 00:03:22;;;;;;;;;;;9.60;80.20;;;;;;2595827;22;20445;-75
2020/12/31 00:04:26;;;;;;;;;;;9.70;79.90;;;;;;2595662;22;20012;-75
2020/12/31 00:05:29;;;;;;;;;;;9.60;79.00;;;;;;2595432;22;20046;-75
2020/12/31 00:06:30;;;;;;;;;;;9.50;79.80;;;;;;2596211;22;20248;-74
2020/12/31 00:07:32;;;;;;;;;;;9.40;79.60;;;;;;2585250;23;19927;-76
2020/12/31 00:08:33;;;;;;;;;;;9.40;80.40;;;;;;2585892;22;19919;-74
2020/12/31 00:09:35;;;;;;;;;;;9.50;80.60;;;;;;2598869;22;19927;-76
2020/12/31 00:10:37;;;;;;;;;;;9.50;81.00;;;;;;2598387;22;19919;-75
2020/12/31 00:11:38;;;;;;;;;;;9.50;80.70;;;;;;2585634;23;19930;-75
2020/12/31 00:12:40;;;;;;;;;;;9.60;81.10;;;;;;2584833;22;19993;-76
2020/12/31 00:13:41;;;;;;;;;;;9.50;80.70;;;;;;2598004;22;19930;-76
2020/12/31 00:14:43;;;;;;;;;;;9.60;79.80;;;;;;2584049;23;20179;-75
2020/12/31 00:15:45;;;;;;;;;;;9.60;79.50;;;;;;2582388;22;19919;-75
2020/12/31 00:16:46;;;;;;;;;;;9.70;80.30;;;;;;2595662;22;20356;-74
2020/12/31 00:17:50;;;;;;;;;;;9.70;79.10;;;;;;2595036;22;19920;-74
2020/12/31 00:18:52;;;;;;;;;;;9.60;79.20;;;;;;2595500;22;20249;-75
2020/12/31 00:19:53;;;;;;;;;;;9.40;79.10;;;;;;2595793;22;19919;-74
2020/12/31 00:20:55;;;;;;;;;;;9.60;80.20;;;;;;2595667;22;20335;-75
2020/12/31 00:21:56;;;;;;;;;;;9.70;79.60;;;;;;2595821;22;19919;-74
2020/12/31 00:22:57;;;;;;;;;;;9.80;79.90;;;;;;2595700;22;20269;-75
2020/12/31 00:23:59;;;;;;;;;;;9.80;79.50;;;;;;2595698;22;20013;-74
2020/12/31 00:25:04;;;;;;;;;;;9.90;79.50;;;;;;2595501;22;19926;-74
2020/12/31 00:26:05;;;;;;;;;;;9.80;79.10;;;;;;2595774;22;19919;-74
2020/12/31 00:27:06;;;;;;;;;;;9.80;79.10;;;;;;2596060;22;20281;-74
2020/12/31 00:28:08;;;;;;;;;;;9.80;79.00;;;;;;2596723;22;19938;-75
2020/12/31 00:29:09;;;;;;;;;;;9.70;80.50;;;;;;2596618;22;19926;-75
2020/12/31 00:30:16;;;;;;;;;;;10.00;80.20;;;;;;2596529;22;19919;-75
2020/12/31 00:31:18;;;;;;;;;;;10.00;79.20;;;;;;2596855;22;20252;-75
2020/12/31 00:32:19;;;;;;;;;;;9.90;79.60;;;;;;2597511;22;19919;-75
2020/12/31 00:33:21;;;;;;;;;;;10.00;79.90;;;;;;2597153;22;20347;-74
2020/12/31 00:34:22;;;;;;;;;;;10.10;79.50;;;;;;2597631;22;19919;-76
2020/12/31 00:35:27;;;;;;;;;;;10.10;79.50;;;;;;2597585;22;19919;-74
2020/12/31 00:36:28;;;;;;;;;;;9.90;79.20;;;;;;2597666;22;19919;-74
2020/12/31 00:37:32;;;;;;;;;;;10.00;80.20;;;;;;2597518;22;19925;-74
2020/12/31 00:38:33;;;;;;;;;;;9.90;79.60;;;;;;2597297;22;19926;-74
2020/12/31 00:39:35;;;;;;;;;;;9.70;80.10;;;;;;2597043;22;19919;-74
2020/12/31 00:40:37;;;;;;;;;;;9.80;81.10;;;;;;2596259;22;19920;-74
2020/12/31 00:41:38;;;;;;;;;;;9.80;80.90;;;;;;2596039;22;19927;-74
2020/12/31 00:42:45;;;;;;;;;;;9.80;81.20;;;;;;2596488;22;19919;-75
2020/12/31 00:43:47;;;;;;;;;;;9.80;80.60;;;;;;2596216;22;19930;-75
2020/12/31 00:44:49;;;;;;;;;;;9.80;80.80;;;;;;2596183;22;19923;-75
2020/12/31 00:45:50;;;;;;;;;;;9.80;80.80;;;;;;2582924;23;19919;-74
2020/12/31 00:46:51;;;;;;;;;;;9.90;80.70;;;;;;2583146;22;19939;-75
2020/12/31 00:47:53;;;;;;;;;;;10.00;80.70;;;;;;2596135;22;20355;-75
2020/12/31 00:48:54;;;;;;;;;;;9.90;80.10;;;;;;2596331;22;19919;-75
2020/12/31 00:49:56;;;;;;;;;;;9.90;80.30;;;;;;2595972;22;19919;-75
2020/12/31 00:50:57;;;;;;;;;;;9.90;80.20;;;;;;2596222;22;19919;-75
2020/12/31 00:51:58;;;;;;;;;;;9.90;80.60;;;;;;2596438;22;19919;-75
2020/12/31 00:53:00;;;;;;;;;;;9.90;80.30;;;;;;2595872;22;19926;-75
2020/12/31 00:54:01;;;;;;;;;;;10.00;80.60;;;;;;2595941;22;20430;-75
2020/12/31 00:55:03;;;;;;;;;;;10.00;80.40;;;;;;2596204;22;19919;-75
2020/12/31 00:56:05;;;;;;;;;;;9.90;80.40;;;;;;2595645;22;20273;-75
2020/12/31 00:57:07;;;;;;;;;;;9.80;80.40;;;;;;2596110;22;19927;-75
2020/12/31 00:58:08;;;;;;;;;;;9.90;80.70;;;;;;2596086;22;19927;-76
2020/12/31 00:59:09;;;;;;;;;;;9.90;80.00;;;;;;2596010;22;19927;-76
2020/12/31 01:00:11;;;;;;;;;;;9.90;80.50;;;;;;2596067;22;19919;-75
2020/12/31 01:01:13;;;;;;;;;;;9.90;80.30;;;;;;2596246;22;19927;-75
2020/12/31 01:02:14;;;;;;;;;;;10.10;80.60;;;;;;2595963;22;20082;-75
2020/12/31 01:03:16;;;;;;;;;;;10.20;80.20;;;;;;2596213;22;20380;-75
2020/12/31 01:04:17;;;;;;;;;;;10.30;79.30;;;;;;2596139;22;19926;-75
2020/12/31 01:05:19;;;;;;;;;;;10.10;79.10;;;;;;2595909;22;20259;-75
2020/12/31 01:06:20;;;;;;;;;;;10.10;80.20;;;;;;2597535;22;19926;-75
2020/12/31 01:07:22;;;;;;;;;;;10.00;79.90;;;;;;2598375;22;19919;-75
2020/12/31 01:08:24;;;;;;;;;;;10.00;80.30;;;;;;2599133;22;20372;-75
2020/12/31 01:09:25;;;;;;;;;;;9.90;80.40;;;;;;2586318;23;19926;-76
2020/12/31 01:10:26;;;;;;;;;;;10.00;81.00;;;;;;2586693;22;19943;-75
2020/12/31 01:11:29;;;;;;;;;;;10.00;80.50;;;;;;2599299;22;19919;-76
2020/12/31 01:12:30;;;;;;;;;;;10.20;80.30;;;;;;2585764;23;19926;-75
2020/12/31 01:13:31;;;;;;;;;;;10.10;80.10;;;;;;2586111;22;19919;-75
2020/12/31 01:14:33;;;;;;;;;;;10.20;80.10;;;;;;2598878;22;19927;-75
2020/12/31 01:15:34;;;;;;;;;;;10.20;79.80;;;;;;2599171;22;19919;-75
2020/12/31 01:16:36;;;;;;;;;;;10.10;80.00;;;;;;2598757;22;20257;-75
2020/12/31 01:17:37;;;;;;;;;;;10.00;80.70;;;;;;2597995;22;19920;-75
2020/12/31 01:18:39;;;;;;;;;;;10.00;80.80;;;;;;2596973;22;19926;-75
2020/12/31 01:19:40;;;;;;;;;;;10.20;80.90;;;;;;2597526;22;19930;-75
2020/12/31 01:20:42;;;;;;;;;;;10.20;80.20;;;;;;2597208;22;19919;-75
2020/12/31 01:21:44;;;;;;;;;;;10.20;80.20;;;;;;2596899;22;19957;-75
2020/12/31 01:22:45;;;;;;;;;;;10.20;80.50;;;;;;2597493;22;20143;-75
2020/12/31 01:23:47;;;;;;;;;;;10.20;80.00;;;;;;2597272;22;19919;-75
2020/12/31 01:24:51;;;;;;;;;;;10.20;80.20;;;;;;2596903;22;20264;-74
2020/12/31 01:25:52;;;;;;;;;;;10.30;80.00;;;;;;2596960;22;19927;-75
2020/12/31 01:26:55;;;;;;;;;;;10.30;79.90;;;;;;2596688;22;19919;-76
2020/12/31 01:27:56;;;;;;;;;;;10.40;79.50;;;;;;2596931;22;19919;-76
2020/12/31 01:28:58;;;;;;;;;;;10.40;79.40;;;;;;2596568;22;20329;-75
2020/12/31 01:29:59;;;;;;;;;;;10.50;79.20;;;;;;2583172;23;19926;-75
2020/12/31 01:31:01;;;;;;;;;;;10.30;79.00;;;;;;2583153;22;20369;-75
2020/12/31 01:32:02;;;;;;;;;;;10.40;79.40;;;;;;2596367;22;20356;-75
2020/12/31 01:33:03;;;;;;;;;;;10.40;79.30;;;;;;2582936;23;19947;-75
2020/12/31 01:34:08;;;;;;;;;;;10.60;79.10;;;;;;2583339;22;20313;-75
2020/12/31 01:35:09;;;;;;;;;;;10.50;78.60;;;;;;2596191;22;20336;-76
2020/12/31 01:36:11;;;;;;;;;;;10.50;78.80;;;;;;2596630;22;19926;-75
2020/12/31 01:37:15;;;;;;;;;;;10.50;79.00;;;;;;2596262;22;19919;-75
2020/12/31 01:38:17;;;;;;;;;;;10.50;78.90;;;;;;2596417;22;19919;-75
2020/12/31 01:39:18;;;;;;;;;;;10.60;78.90;;;;;;2596788;22;19919;-75
2020/12/31 01:40:19;;;;;;;;;;;10.70;78.70;;;;;;2596537;22;19919;-75
2020/12/31 01:41:22;;;;;;;;;;;10.60;78.50;;;;;;2596665;22;19926;-75
2020/12/31 01:42:24;;;;;;;;;;;10.60;78.80;;;;;;2596583;22;19942;-76
2020/12/31 01:43:26;;;;;;;;;;;10.60;78.60;;;;;;2596069;22;19947;-75
2020/12/31 01:44:28;;;;;;;;;;;10.60;78.40;;;;;;2596339;22;19938;-75
2020/12/31 01:45:29;;;;;;;;;;;10.30;78.70;;;;;;2596154;22;20222;-75
2020/12/31 01:46:32;;;;;;;;;;;10.20;80.20;;;;;;2596399;22;19920;-75
2020/12/31 01:47:34;;;;;;;;;;;10.30;80.20;;;;;;2596350;22;19919;-75
2020/12/31 01:48:36;;;;;;;;;;;10.40;80.20;;;;;;2596092;22;19919;-75
2020/12/31 01:49:38;;;;;;;;;;;10.50;80.00;;;;;;2596078;22;20238;-75
2020/12/31 01:50:40;;;;;;;;;;;10.50;79.60;;;;;;2595959;22;19919;-75
2020/12/31 01:51:44;;;;;;;;;;;10.50;79.40;;;;;;2596414;22;19919;-75
2020/12/31 01:52:46;;;;;;;;;;;10.50;79.70;;;;;;2582845;23;19919;-75
2020/12/31 01:53:47;;;;;;;;;;;10.50;79.50;;;;;;2583132;22;19920;-75
2020/12/31 01:54:49;;;;;;;;;;;10.50;79.30;;;;;;2596067;22;19927;-75
2020/12/31 01:55:53;;;;;;;;;;;10.50;79.60;;;;;;2595859;22;19926;-75
2020/12/31 01:56:56;;;;;;;;;;;10.40;79.80;;;;;;2595924;22;19926;-75
2020/12/31 01:57:58;;;;;;;;;;;10.50;79.90;;;;;;2596464;22;19934;-75
2020/12/31 01:58:59;;;;;;;;;;;10.50;79.70;;;;;;2596098;22;20330;-75
2020/12/31 02:00:01;;;;;;;;;;;10.60;79.70;;;;;;2596372;22;19919;-75
2020/12/31 02:01:02;;;;;;;;;;;10.70;79.50;;;;;;2596122;22;19926;-75
2020/12/31 02:02:04;;;;;;;;;;;10.70;79.20;;;;;;2596196;22;19919;-75
2020/12/31 02:03:05;;;;;;;;;;;10.70;78.90;;;;;;2596156;22;20341;-75
2020/12/31 02:04:06;;;;;;;;;;;10.80;78.80;;;;;;2595927;22;19977;-75
2020/12/31 02:05:08;;;;;;;;;;;10.60;78.80;;;;;;2596093;22;20320;-75
2020/12/31 02:06:10;;;;;;;;;;;10.50;79.40;;;;;;2596532;22;19919;-75
2020/12/31 02:07:12;;;;;;;;;;;10.40;80.40;;;;;;2596303;22;19934;-75
2020/12/31 02:08:14;;;;;;;;;;;10.50;80.60;;;;;;2596174;22;20268;-75
2020/12/31 02:09:15;;;;;;;;;;;10.40;80.30;;;;;;2595986;22;19919;-74
2020/12/31 02:10:16;;;;;;;;;;;10.30;81.00;;;;;;2596225;22;19926;-74
2020/12/31 02:11:19;;;;;;;;;;;10.40;81.00;;;;;;2596061;22;19925;-74
2020/12/31 02:12:20;;;;;;;;;;;10.60;80.60;;;;;;2596328;22;19927;-75
2020/12/31 02:13:22;;;;;;;;;;;10.70;80.20;;;;;;2595924;22;20328;-75
2020/12/31 02:14:24;;;;;;;;;;;10.70;79.50;;;;;;2596167;22;20341;-74
2020/12/31 02:15:25;;;;;;;;;;;10.70;79.50;;;;;;2596150;22;19927;-75
2020/12/31 02:16:27;;;;;;;;;;;10.80;79.40;;;;;;2596075;22;19927;-74
2020/12/31 02:17:29;;;;;;;;;;;10.80;79.20;;;;;;2596144;22;19919;-75
2020/12/31 02:18:30;;;;;;;;;;;10.80;79.00;;;;;;2596002;22;19926;-74
2020/12/31 02:19:31;;;;;;;;;;;10.90;78.80;;;;;;2596074;22;19927;-74
2020/12/31 02:20:35;;;;;;;;;;;11.00;78.40;;;;;;2596477;22;19919;-74
2020/12/31 02:21:37;;;;;;;;;;;10.90;78.20;;;;;;2596284;22;20337;-75
2020/12/31 02:22:39;;;;;;;;;;;11.00;78.30;;;;;;2596127;22;20253;-75
2020/12/31 02:23:42;;;;;;;;;;;10.90;78.40;;;;;;2595823;22;20226;-74
2020/12/31 02:24:44;;;;;;;;;;;11.00;78.30;;;;;;2596034;22;19926;-75
2020/12/31 02:25:45;;;;;;;;;;;11.00;78.10;;;;;;2595906;22;19970;-75
2020/12/31 02:26:47;;;;;;;;;;;11.00;77.90;;;;;;2596142;22;19944;-75
2020/12/31 02:27:48;;;;;;;;;;;11.00;78.00;;;;;;2596399;22;19919;-75
2020/12/31 02:28:50;;;;;;;;;;;11.00;78.50;;;;;;2595945;22;19951;-75
2020/12/31 02:29:53;;;;;;;;;;;10.90;79.00;;;;;;2595931;22;19919;-74
2020/12/31 02:30:54;;;;;;;;;;;11.00;78.50;;;;;;2582609;23;20273;-74
2020/12/31 02:31:55;;;;;;;;;;;11.00;78.90;;;;;;2582694;22;19920;-75
2020/12/31 02:32:58;;;;;;;;;;;11.00;78.80;;;;;;2596022;22;20230;-75
2020/12/31 02:34:00;;;;;;;;;;;11.00;78.50;;;;;;2596075;22;19938;-74
2020/12/31 02:35:02;;;;;;;;;;;10.90;79.10;;;;;;2596136;22;19923;-74
2020/12/31 02:36:03;;;;;;;;;;;10.80;79.30;;;;;;2596107;22;20167;-76
2020/12/31 02:37:05;;;;;;;;;;;10.60;80.60;;;;;;2595970;22;19927;-76
2020/12/31 02:38:07;;;;;;;;;;;10.60;80.80;;;;;;2595971;22;19926;-75
2020/12/31 02:39:09;;;;;;;;;;;10.70;80.60;;;;;;2596149;22;19947;-75
2020/12/31 02:40:10;;;;;;;;;;;10.80;80.10;;;;;;2595721;22;19920;-75
2020/12/31 02:41:12;;;;;;;;;;;10.80;79.90;;;;;;2596020;22;19927;-76
2020/12/31 02:42:13;;;;;;;;;;;10.90;80.00;;;;;;2596019;22;19930;-75
2020/12/31 02:43:15;;;;;;;;;;;10.80;80.20;;;;;;2595887;22;19919;-75
2020/12/31 02:44:16;;;;;;;;;;;10.90;80.00;;;;;;2595673;22;19919;-74
2020/12/31 02:45:17;;;;;;;;;;;10.90;79.90;;;;;;2596133;22;19926;-76
2020/12/31 02:46:22;;;;;;;;;;;11.00;79.80;;;;;;2595744;22;20234;-76
2020/12/31 02:47:23;;;;;;;;;;;11.10;79.40;;;;;;2595970;22;19920;-75
2020/12/31 02:48:24;;;;;;;;;;;11.00;78.80;;;;;;2595772;22;19970;-76
2020/12/31 02:49:26;;;;;;;;;;;11.00;78.90;;;;;;2595609;22;19926;-76
2020/12/31 02:50:27;;;;;;;;;;;10.90;79.30;;;;;;2595703;22;19927;-75
2020/12/31 02:51:29;;;;;;;;;;;10.90;79.80;;;;;;2596074;22;20279;-75
2020/12/31 02:52:31;;;;;;;;;;;10.70;79.80;;;;;;2595843;22;19923;-77
2020/12/31 02:53:34;;;;;;;;;;;10.70;80.60;;;;;;2595867;22;19923;-76
2020/12/31 02:54:35;;;;;;;;;;;10.70;81.00;;;;;;2595836;22;19923;-75
2020/12/31 02:55:36;;;;;;;;;;;10.80;80.70;;;;;;2595736;22;19920;-76
2020/12/31 02:56:39;;;;;;;;;;;10.80;80.20;;;;;;2595737;22;19946;-76
2020/12/31 02:57:40;;;;;;;;;;;10.90;80.30;;;;;;2596029;22;19919;-75
2020/12/31 02:58:42;;;;;;;;;;;10.90;80.00;;;;;;2595707;22;19919;-76
2020/12/31 02:59:43;;;;;;;;;;;11.00;79.80;;;;;;2595849;22;19919;-76
2020/12/31 03:00:45;;;;;;;;;;;11.00;79.60;;;;;;2595697;22;20241;-75
2020/12/31 03:01:47;;;;;;;;;;;10.90;79.70;;;;;;2596026;22;19926;-76
2020/12/31 03:02:48;;;;;;;;;;;10.70;80.40;;;;;;2595961;22;19919;-75
2020/12/31 03:03:50;;;;;;;;;;;10.70;80.40;;;;;;2596009;22;19923;-76
2020/12/31 03:04:52;;;;;;;;;;;10.90;80.20;;;;;;2596019;22;19926;-76
2020/12/31 03:05:53;;;;;;;;;;;10.90;79.90;;;;;;2595976;22;20333;-75
2020/12/31 03:06:57;;;;;;;;;;;10.80;80.40;;;;;;2597487;22;19919;-75
2020/12/31 03:07:59;;;;;;;;;;;10.80;80.30;;;;;;2599197;22;19946;-75
2020/12/31 03:09:02;;;;;;;;;;;10.80;80.20;;;;;;2598310;22;19930;-76
2020/12/31 03:10:03;;;;;;;;;;;10.90;80.00;;;;;;2585811;23;19927;-76
2020/12/31 03:11:05;;;;;;;;;;;11.00;79.80;;;;;;2585925;22;19919;-77
2020/12/31 03:12:07;;;;;;;;;;;11.10;79.50;;;;;;2599001;22;19926;-76
2020/12/31 03:13:08;;;;;;;;;;;11.10;79.20;;;;;;2598776;22;19930;-76
2020/12/31 03:14:10;;;;;;;;;;;11.00;79.20;;;;;;2599150;22;19919;-76
2020/12/31 03:15:12;;;;;;;;;;;11.00;79.40;;;;;;2599078;22;19970;-75
2020/12/31 03:16:13;;;;;;;;;;;11.00;79.50;;;;;;2599035;22;19926;-76
2020/12/31 03:17:16;;;;;;;;;;;11.00;79.50;;;;;;2599036;22;19919;-75
2020/12/31 03:18:17;;;;;;;;;;;11.00;79.40;;;;;;2597380;22;19919;-75
2020/12/31 03:19:19;;;;;;;;;;;11.00;79.50;;;;;;2596779;22;19930;-76
2020/12/31 03:20:20;;;;;;;;;;;11.00;79.70;;;;;;2583176;23;19944;-76
2020/12/31 03:21:22;;;;;;;;;;;11.10;79.20;;;;;;2583104;22;19964;-76
2020/12/31 03:22:23;;;;;;;;;;;11.30;78.80;;;;;;2596153;22;19919;-76
2020/12/31 03:23:24;;;;;;;;;;;11.30;78.30;;;;;;2596593;22;20329;-75
2020/12/31 03:24:27;;;;;;;;;;;11.40;78.30;;;;;;2596401;22;19926;-75
2020/12/31 03:25:31;;;;;;;;;;;11.20;78.50;;;;;;2596259;22;19998;-75
2020/12/31 03:26:32;;;;;;;;;;;11.20;78.80;;;;;;2595856;22;20268;-76
2020/12/31 03:27:34;;;;;;;;;;;11.20;78.90;;;;;;2582829;23;20349;-76
2020/12/31 03:28:35;;;;;;;;;;;11.20;79.60;;;;;;2582903;22;20312;-75
2020/12/31 03:29:37;;;;;;;;;;;11.20;79.20;;;;;;2596175;22;19920;-75
2020/12/31 03:30:39;;;;;;;;;;;11.00;79.60;;;;;;2596169;22;19923;-75
2020/12/31 03:31:42;;;;;;;;;;;11.00;79.50;;;;;;2596236;22;19919;-75
2020/12/31 03:32:43;;;;;;;;;;;11.10;79.50;;;;;;2595947;22;19919;-75
2020/12/31 03:33:45;;;;;;;;;;;11.10;79.40;;;;;;2595905;22;19919;-76
2020/12/31 03:34:46;;;;;;;;;;;11.00;79.70;;;;;;2595790;22;20037;-75
2020/12/31 03:35:49;;;;;;;;;;;10.90;80.10;;;;;;2582605;23;19919;-75
2020/12/31 03:36:51;;;;;;;;;;;10.90;80.10;;;;;;2582909;22;19947;-75
2020/12/31 03:37:52;;;;;;;;;;;10.90;80.00;;;;;;2596079;22;19920;-76
2020/12/31 03:38:57;;;;;;;;;;;11.10;79.80;;;;;;2595997;22;19919;-75
2020/12/31 03:39:59;;;;;;;;;;;11.00;79.30;;;;;;2595755;22;20249;-76
2020/12/31 03:41:00;;;;;;;;;;;10.90;79.90;;;;;;2595690;22;19926;-75
2020/12/31 03:42:02;;;;;;;;;;;10.90;80.40;;;;;;2596766;22;19924;-76
2020/12/31 03:43:03;;;;;;;;;;;10.20;80.00;;;;;;2597778;22;19919;-75
2020/12/31 03:44:05;;;;;;;;;;;10.80;80.40;;;;;;2598760;22;19919;-76
2020/12/31 03:45:06;;;;;;;;;;;10.90;80.50;;;;;;2585958;23;19919;-78
2020/12/31 03:46:08;;;;;;;;;;;10.90;80.60;;;;;;2586394;22;19919;-75
2020/12/31 03:47:09;;;;;;;;;;;10.90;80.30;;;;;;2599605;22;19919;-76
2020/12/31 03:48:11;;;;;;;;;;;11.00;80.20;;;;;;2600148;22;19919;-76
2020/12/31 03:49:12;;;;;;;;;;;10.90;80.20;;;;;;2599837;22;19931;-75
2020/12/31 03:50:13;;;;;;;;;;;11.00;80.10;;;;;;2600347;22;19919;-76
2020/12/31 03:51:15;;;;;;;;;;;11.00;80.00;;;;;;2599527;22;19927;-75
2020/12/31 03:52:16;;;;;;;;;;;11.10;79.70;;;;;;2598842;22;19919;-76
2020/12/31 03:53:18;;;;;;;;;;;11.10;79.80;;;;;;2597768;22;19919;-76
2020/12/31 03:54:19;;;;;;;;;;;11.10;79.70;;;;;;2597002;22;20363;-76
2020/12/31 03:55:21;;;;;;;;;;;11.10;79.70;;;;;;2596916;22;19919;-76
2020/12/31 03:56:23;;;;;;;;;;;11.00;79.60;;;;;;2596297;22;20345;-76
2020/12/31 03:57:24;;;;;;;;;;;11.10;79.60;;;;;;2596538;22;19927;-76
2020/12/31 03:58:25;;;;;;;;;;;11.10;79.60;;;;;;2596760;22;19938;-76
2020/12/31 03:59:27;;;;;;;;;;;11.20;79.50;;;;;;2596763;22;19926;-75
2020/12/31 04:00:28;;;;;;;;;;;11.10;79.20;;;;;;2596338;22;19926;-75
2020/12/31 04:01:30;;;;;;;;;;;11.20;79.30;;;;;;2597131;22;19920;-75
2020/12/31 04:02:31;;;;;;;;;;;11.20;79.20;;;;;;2597269;22;19928;-75
2020/12/31 04:03:33;;;;;;;;;;;11.20;79.40;;;;;;2597090;22;19939;-75
2020/12/31 04:04:34;;;;;;;;;;;11.20;79.10;;;;;;2597090;22;19926;-75
2020/12/31 04:05:35;;;;;;;;;;;11.20;79.30;;;;;;2597267;22;20360;-76
2020/12/31 04:06:37;;;;;;;;;;;11.20;79.30;;;;;;2597291;22;19920;-76
2020/12/31 04:07:38;;;;;;;;;;;11.30;79.00;;;;;;2583926;23;19977;-75
2020/12/31 04:08:41;;;;;;;;;;;11.40;78.80;;;;;;2571798;23;19920;-75
2020/12/31 04:09:42;;;;;;;;;;;11.30;78.70;;;;;;2583689;22;19926;-75
2020/12/31 04:10:44;;;;;;;;;;;11.30;78.60;;;;;;2596742;22;19919;-76
2020/12/31 04:11:46;;;;;;;;;;;11.30;78.60;;;;;;2583352;23;20356;-76
2020/12/31 04:12:47;;;;;;;;;;;11.30;78.70;;;;;;2571083;23;19920;-76
2020/12/31 04:13:49;;;;;;;;;;;11.40;78.50;;;;;;2583369;22;19926;-75
2020/12/31 04:14:50;;;;;;;;;;;11.30;78.80;;;;;;2596979;22;19930;-76
2020/12/31 04:15:52;;;;;;;;;;;11.30;78.70;;;;;;2596754;22;19919;-76
2020/12/31 04:16:53;;;;;;;;;;;11.20;78.90;;;;;;2597124;22;19919;-76
2020/12/31 04:17:56;;;;;;;;;;;11.20;79.00;;;;;;2596753;22;20359;-77
2020/12/31 04:18:58;;;;;;;;;;;11.30;79.10;;;;;;2596790;22;19920;-76
2020/12/31 04:19:59;;;;;;;;;;;11.30;78.90;;;;;;2596560;22;19931;-76
2020/12/31 04:21:00;;;;;;;;;;;11.20;78.90;;;;;;2596745;22;19920;-76
2020/12/31 04:22:03;;;;;;;;;;;11.30;78.70;;;;;;2596481;22;19919;-76
2020/12/31 04:23:06;;;;;;;;;;;11.40;78.50;;;;;;2596578;22;20294;-75
2020/12/31 04:24:09;;;;;;;;;;;11.30;78.50;;;;;;2596554;22;19926;-76
2020/12/31 04:25:10;;;;;;;;;;;11.40;78.50;;;;;;2596846;22;20349;-76
2020/12/31 04:26:13;;;;;;;;;;;11.30;78.30;;;;;;2596673;22;19946;-76
2020/12/31 04:27:14;;;;;;;;;;;11.30;78.80;;;;;;2597186;22;20356;-76
2020/12/31 04:28:16;;;;;;;;;;;11.30;78.70;;;;;;2597259;22;19919;-75
2020/12/31 04:29:17;;;;;;;;;;;11.30;78.80;;;;;;2596949;22;20266;-75
2020/12/31 04:30:19;;;;;;;;;;;11.30;79.00;;;;;;2597758;22;19919;-75
2020/12/31 04:31:20;;;;;;;;;;;11.30;79.40;;;;;;2598013;22;19934;-75
2020/12/31 04:32:21;;;;;;;;;;;11.30;78.60;;;;;;2597817;22;19919;-75
2020/12/31 04:33:23;;;;;;;;;;;11.40;78.30;;;;;;2598302;22;19919;-75
2020/12/31 04:34:24;;;;;;;;;;;11.50;78.40;;;;;;2597654;22;19919;-75
2020/12/31 04:35:26;;;;;;;;;;;11.50;78.20;;;;;;2597864;22;19919;-75
2020/12/31 04:36:27;;;;;;;;;;;11.40;78.40;;;;;;2597528;22;19919;-74
2020/12/31 04:37:28;;;;;;;;;;;11.20;78.50;;;;;;2597554;22;20237;-76
2020/12/31 04:38:30;;;;;;;;;;;11.20;78.90;;;;;;2597528;22;19930;-75
2020/12/31 04:39:31;;;;;;;;;;;11.40;78.80;;;;;;2596866;22;19926;-76
2020/12/31 04:40:33;;;;;;;;;;;11.40;78.80;;;;;;2597070;22;19919;-76
2020/12/31 04:41:35;;;;;;;;;;;11.40;78.40;;;;;;2597670;22;19919;-75
2020/12/31 04:42:37;;;;;;;;;;;11.40;78.20;;;;;;2597614;22;20233;-75
2020/12/31 04:43:38;;;;;;;;;;;11.40;78.30;;;;;;2597286;22;19919;-76
2020/12/31 04:44:40;;;;;;;;;;;11.40;78.20;;;;;;2596242;22;19923;-76
2020/12/31 04:45:42;;;;;;;;;;;11.40;78.30;;;;;;2596646;22;19919;-76
2020/12/31 04:46:48;;;;;;;;;;;11.50;78.30;;;;;;2596553;22;20337;-76
2020/12/31 04:47:58;;;;;;;;;;;11.50;78.30;;;;;;2596335;22;19919;-76
2020/12/31 04:49:05;;;;;;;;;;;11.40;78.40;;;;;;2596536;22;19930;-76
2020/12/31 04:50:06;;;;;;;;;;;11.50;78.30;;;;;;2596460;22;19919;-75
2020/12/31 04:51:10;;;;;;;;;;;11.40;78.50;;;;;;2596557;22;19920;-76
2020/12/31 04:52:11;;;;;;;;;;;11.50;78.50;;;;;;2596484;22;20267;-76
2020/12/31 04:53:13;;;;;;;;;;;11.40;78.60;;;;;;2596394;22;20359;-76
2020/12/31 04:54:14;;;;;;;;;;;11.40;78.70;;;;;;2596525;22;19938;-76
2020/12/31 04:55:17;;;;;;;;;;;11.50;78.70;;;;;;2596485;22;19925;-76
2020/12/31 04:56:19;;;;;;;;;;;11.50;78.90;;;;;;2596375;22;19927;-76
2020/12/31 04:57:21;;;;;;;;;;;11.40;78.80;;;;;;2596862;22;19926;-76
2020/12/31 04:58:22;;;;;;;;;;;11.40;79.30;;;;;;2597173;22;19920;-76
2020/12/31 04:59:24;;;;;;;;;;;11.40;79.20;;;;;;2597004;22;19919;-75
2020/12/31 05:00:26;;;;;;;;;;;11.40;78.90;;;;;;2597292;22;19919;-76
2020/12/31 05:01:27;;;;;;;;;;;11.50;79.00;;;;;;2597028;22;19926;-75
2020/12/31 05:02:29;;;;;;;;;;;11.50;78.90;;;;;;2597031;22;19923;-75
2020/12/31 05:03:30;;;;;;;;;;;11.50;79.00;;;;;;2596629;22;19919;-75
2020/12/31 05:04:32;;;;;;;;;;;11.40;79.40;;;;;;2597219;22;19919;-75
2020/12/31 05:05:34;;;;;;;;;;;11.40;79.40;;;;;;2596689;22;20243;-76
2020/12/31 05:06:36;;;;;;;;;;;11.40;79.30;;;;;;2596699;22;20222;-74
2020/12/31 05:07:38;;;;;;;;;;;11.50;79.30;;;;;;2597091;22;19923;-75
2020/12/31 05:08:41;;;;;;;;;;;11.40;79.60;;;;;;2596791;22;19971;-75
2020/12/31 05:09:42;;;;;;;;;;;11.40;79.60;;;;;;2596950;22;19919;-75
2020/12/31 05:10:51;;;;;;;;;;;11.30;79.50;;;;;;2597180;22;19926;-75
2020/12/31 05:11:53;;;;;;;;;;;11.40;79.60;;;;;;2584041;23;19919;-76
2020/12/31 05:12:58;;;;;;;;;;;11.40;79.40;;;;;;2583983;22;19993;-76
2020/12/31 05:13:59;;;;;;;;;;;11.30;79.60;;;;;;2596720;22;19919;-76
2020/12/31 05:15:01;;;;;;;;;;;11.30;79.30;;;;;;2596900;22;20344;-76
2020/12/31 05:16:02;;;;;;;;;;;11.40;79.40;;;;;;2597309;22;19919;-76
2020/12/31 05:17:11;;;;;;;;;;;11.40;79.40;;;;;;2597706;22;20432;-76
2020/12/31 05:18:17;;;;;;;;;;;11.40;79.50;;;;;;2598441;22;19920;-76
2020/12/31 05:19:20;;;;;;;;;;;11.40;79.60;;;;;;2598201;22;19926;-76
2020/12/31 05:20:29;;;;;;;;;;;11.30;80.00;;;;;;2597774;22;20261;-76
2020/12/31 05:21:31;;;;;;;;;;;11.40;80.00;;;;;;2598267;22;19927;-76
2020/12/31 05:22:32;;;;;;;;;;;11.40;79.90;;;;;;2598378;22;20355;-76
2020/12/31 05:23:34;;;;;;;;;;;11.50;79.60;;;;;;2598351;22;19959;-75
2020/12/31 05:24:35;;;;;;;;;;;11.60;79.10;;;;;;2597838;22;20252;-76
2020/12/31 05:25:36;;;;;;;;;;;11.60;79.10;;;;;;2596652;22;19926;-76
2020/12/31 05:26:38;;;;;;;;;;;11.70;78.60;;;;;;2596321;22;19923;-76
2020/12/31 05:27:40;;;;;;;;;;;11.80;78.40;;;;;;2596989;22;19926;-76
2020/12/31 05:28:42;;;;;;;;;;;11.80;78.30;;;;;;2596472;22;19945;-76
2020/12/31 05:29:53;;;;;;;;;;;11.70;78.50;;;;;;2596582;22;19919;-75
2020/12/31 05:30:57;;;;;;;;;;;11.60;78.80;;;;;;2596673;22;19926;-76
2020/12/31 05:31:59;;;;;;;;;;;11.50;79.20;;;;;;2596543;22;19926;-76
2020/12/31 05:33:03;;;;;;;;;;;11.50;79.30;;;;;;2596280;22;19919;-76
2020/12/31 05:34:05;;;;;;;;;;;11.50;79.40;;;;;;2596189;22;19920;-76
2020/12/31 05:35:10;;;;;;;;;;;11.60;79.40;;;;;;2596333;22;19919;-76
2020/12/31 05:36:16;;;;;;;;;;;11.60;79.40;;;;;;2596519;22;19919;-76
2020/12/31 05:37:19;;;;;;;;;;;11.50;80.00;;;;;;2596494;22;19919;-75
2020/12/31 05:38:21;;;;;;;;;;;11.40;79.40;;;;;;2596548;22;20383;-76
2020/12/31 05:39:23;;;;;;;;;;;11.50;79.50;;;;;;2596442;22;19919;-76
2020/12/31 05:40:25;;;;;;;;;;;11.50;79.50;;;;;;2596380;22;19923;-75
2020/12/31 05:41:28;;;;;;;;;;;11.40;79.90;;;;;;2596343;22;19974;-76
2020/12/31 05:42:30;;;;;;;;;;;11.50;79.60;;;;;;2596456;22;19938;-75
2020/12/31 05:43:33;;;;;;;;;;;11.60;79.30;;;;;;2596398;22;19954;-76
2020/12/31 05:44:35;;;;;;;;;;;11.60;79.10;;;;;;2596320;22;19919;-76
2020/12/31 05:45:39;;;;;;;;;;;11.60;79.30;;;;;;2596424;22;19919;-76
2020/12/31 05:46:41;;;;;;;;;;;11.50;79.60;;;;;;2596416;22;19920;-76
2020/12/31 05:47:46;;;;;;;;;;;11.60;79.30;;;;;;2596106;22;19920;-76
2020/12/31 05:48:53;;;;;;;;;;;11.60;79.30;;;;;;2596464;22;19919;-76
2020/12/31 05:49:55;;;;;;;;;;;11.60;79.10;;;;;;2596416;22;20078;-76
2020/12/31 05:50:56;;;;;;;;;;;11.40;79.10;;;;;;2596173;22;19919;-76
2020/12/31 05:51:58;;;;;;;;;;;11.50;79.50;;;;;;2596343;22;19926;-76
2020/12/31 05:52:59;;;;;;;;;;;11.50;79.60;;;;;;2596071;22;20344;-75
2020/12/31 05:54:05;;;;;;;;;;;11.50;79.30;;;;;;2596303;22;19919;-76
2020/12/31 05:55:07;;;;;;;;;;;11.60;79.40;;;;;;2596330;22;19942;-75
2020/12/31 05:56:09;;;;;;;;;;;11.60;79.00;;;;;;2596101;22;20356;-76
2020/12/31 05:57:12;;;;;;;;;;;11.70;78.90;;;;;;2582895;23;19928;-76
2020/12/31 05:58:17;;;;;;;;;;;11.70;78.60;;;;;;2582851;22;20337;-75
2020/12/31 05:59:21;;;;;;;;;;;11.80;78.10;;;;;;2596202;22;20345;-76
2020/12/31 06:00:24;;;;;;;;;;;11.90;77.90;;;;;;2596371;22;20237;-76
2020/12/31 06:01:29;;;;;;;;;;;11.90;77.90;;;;;;2596603;22;19980;-76